sensor_id;sensor_type;location;lat;lon;timestamp;P1;durP1;ratioP1;P2;durP2;ratioP2
17592;SDS011;8915;51.760;14.300;2022-07-25T00:00:56;0.90;;;0.70;;
17592;SDS011;8915;51.760;14.300;2022-07-25T00:03:23;0.90;;;0.90;;
17592;SDS011;8915;51.760;14.300;2022-07-25T00:05:49;0.70;;;0.70;;
17592;SDS011;8915;51.760;14.300;2022-07-25T00:08:16;1.00;;;0.90;;
17592;SDS011;8915;51.760;14.300;2022-07-25T00:10:43;0.60;;;0.60;;
17592;SDS011;8915;51.760;14.300;2022-07-25T00:13:10;1.00;;;0.77;;
17592;SDS011;8915;51.760;14.300;2022-07-25T00:15:36;0.87;;;0.87;;
17592;SDS011;8915;51.760;14.300;2022-07-25T00:18:03;1.07;;;0.90;;
17592;SDS011;8915;51.760;14.300;2022-07-25T00:20:29;1.23;;;1.00;;
17592;SDS011;8915;51.760;14.300;2022-07-25T00:22:56;1.03;;;0.90;;
17592;SDS011;8915;51.760;14.300;2022-07-25T00:25:22;0.80;;;0.80;;
17592;SDS011;8915;51.760;14.300;2022-07-25T00:27:50;0.80;;;0.80;;
17592;SDS011;8915;51.760;14.300;2022-07-25T00:30:17;0.77;;;0.77;;
17592;SDS011;8915;51.760;14.300;2022-07-25T00:32:43;1.40;;;0.90;;
17592;SDS011;8915;51.760;14.300;2022-07-25T00:35:10;1.70;;;0.87;;
17592;SDS011;8915;51.760;14.300;2022-07-25T00:37:37;2.13;;;1.03;;
17592;SDS011;8915;51.760;14.300;2022-07-25T00:40:04;0.83;;;0.70;;
17592;SDS011;8915;51.760;14.300;2022-07-25T00:42:31;0.73;;;0.73;;
17592;SDS011;8915;51.760;14.300;2022-07-25T00:44:59;0.90;;;0.83;;
17592;SDS011;8915;51.760;14.300;2022-07-25T00:47:26;2.30;;;1.10;;
17592;SDS011;8915;51.760;14.300;2022-07-25T00:49:52;1.00;;;0.90;;
17592;SDS011;8915;51.760;14.300;2022-07-25T00:52:18;1.10;;;0.97;;
17592;SDS011;8915;51.760;14.300;2022-07-25T00:54:45;1.17;;;0.90;;
17592;SDS011;8915;51.760;14.300;2022-07-25T00:57:12;1.07;;;0.87;;
17592;SDS011;8915;51.760;14.300;2022-07-25T00:59:38;1.20;;;0.97;;
17592;SDS011;8915;51.760;14.300;2022-07-25T01:02:06;2.20;;;0.90;;
17592;SDS011;8915;51.760;14.300;2022-07-25T01:04:33;0.90;;;0.80;;
17592;SDS011;8915;51.760;14.300;2022-07-25T01:06:59;1.20;;;0.90;;
17592;SDS011;8915;51.760;14.300;2022-07-25T01:09:26;1.10;;;0.87;;
17592;SDS011;8915;51.760;14.300;2022-07-25T01:11:53;1.43;;;1.10;;
17592;SDS011;8915;51.760;14.300;2022-07-25T01:14:20;0.93;;;0.80;;
17592;SDS011;8915;51.760;14.300;2022-07-25T01:16:46;1.20;;;1.03;;
17592;SDS011;8915;51.760;14.300;2022-07-25T01:19:14;0.80;;;0.80;;
17592;SDS011;8915;51.760;14.300;2022-07-25T01:21:42;0.80;;;0.80;;
17592;SDS011;8915;51.760;14.300;2022-07-25T01:24:08;0.60;;;0.60;;
17592;SDS011;8915;51.760;14.300;2022-07-25T01:26:35;2.87;;;0.77;;
17592;SDS011;8915;51.760;14.300;2022-07-25T01:29:02;1.10;;;1.00;;
17592;SDS011;8915;51.760;14.300;2022-07-25T01:31:29;1.20;;;1.10;;
17592;SDS011;8915;51.760;14.300;2022-07-25T01:33:55;0.90;;;0.90;;
17592;SDS011;8915;51.760;14.300;2022-07-25T01:36:21;1.27;;;0.90;;
17592;SDS011;8915;51.760;14.300;2022-07-25T01:38:49;1.10;;;0.80;;
17592;SDS011;8915;51.760;14.300;2022-07-25T01:41:16;1.87;;;0.90;;
17592;SDS011;8915;51.760;14.300;2022-07-25T01:43:42;2.83;;;1.20;;
17592;SDS011;8915;51.760;14.300;2022-07-25T01:46:08;1.67;;;1.20;;
17592;SDS011;8915;51.760;14.300;2022-07-25T01:48:35;0.90;;;0.90;;
17592;SDS011;8915;51.760;14.300;2022-07-25T01:51:01;0.87;;;0.83;;
17592;SDS011;8915;51.760;14.300;2022-07-25T01:53:28;2.63;;;1.13;;
17592;SDS011;8915;51.760;14.300;2022-07-25T01:55:56;1.40;;;1.10;;
17592;SDS011;8915;51.760;14.300;2022-07-25T01:58:24;1.60;;;0.93;;
17592;SDS011;8915;51.760;14.300;2022-07-25T02:00:50;1.17;;;1.00;;
17592;SDS011;8915;51.760;14.300;2022-07-25T02:03:17;4.63;;;1.07;;
17592;SDS011;8915;51.760;14.300;2022-07-25T02:05:56;0.83;;;0.80;;
17592;SDS011;8915;51.760;14.300;2022-07-25T02:08:23;1.07;;;0.80;;
17592;SDS011;8915;51.760;14.300;2022-07-25T02:10:49;1.10;;;1.00;;
17592;SDS011;8915;51.760;14.300;2022-07-25T02:13:17;2.10;;;1.03;;
17592;SDS011;8915;51.760;14.300;2022-07-25T02:15:44;1.47;;;0.90;;
17592;SDS011;8915;51.760;14.300;2022-07-25T02:18:10;1.10;;;1.00;;
17592;SDS011;8915;51.760;14.300;2022-07-25T02:20:36;1.40;;;1.00;;
17592;SDS011;8915;51.760;14.300;2022-07-25T02:23:03;0.83;;;0.83;;
17592;SDS011;8915;51.760;14.300;2022-07-25T02:25:30;1.70;;;1.10;;
17592;SDS011;8915;51.760;14.300;2022-07-25T02:27:57;1.23;;;1.13;;
17592;SDS011;8915;51.760;14.300;2022-07-25T02:30:24;2.63;;;0.90;;
17592;SDS011;8915;51.760;14.300;2022-07-25T02:32:51;2.33;;;0.87;;
17592;SDS011;8915;51.760;14.300;2022-07-25T02:35:18;2.67;;;1.00;;
17592;SDS011;8915;51.760;14.300;2022-07-25T02:37:45;1.47;;;1.00;;
17592;SDS011;8915;51.760;14.300;2022-07-25T02:40:11;0.80;;;0.80;;
17592;SDS011;8915;51.760;14.300;2022-07-25T02:42:38;1.13;;;1.00;;
17592;SDS011;8915;51.760;14.300;2022-07-25T02:45:05;0.90;;;0.80;;
17592;SDS011;8915;51.760;14.300;2022-07-25T02:47:33;1.53;;;1.10;;
17592;SDS011;8915;51.760;14.300;2022-07-25T02:50:00;1.03;;;0.90;;
17592;SDS011;8915;51.760;14.300;2022-07-25T02:52:27;1.23;;;0.87;;
17592;SDS011;8915;51.760;14.300;2022-07-25T02:54:53;1.10;;;0.87;;
17592;SDS011;8915;51.760;14.300;2022-07-25T02:57:19;1.37;;;1.10;;
17592;SDS011;8915;51.760;14.300;2022-07-25T02:59:46;1.73;;;0.83;;
17592;SDS011;8915;51.760;14.300;2022-07-25T03:02:12;1.33;;;1.10;;
17592;SDS011;8915;51.760;14.300;2022-07-25T03:04:41;1.10;;;1.00;;
17592;SDS011;8915;51.760;14.300;2022-07-25T03:07:07;2.57;;;1.17;;
17592;SDS011;8915;51.760;14.300;2022-07-25T03:09:34;0.87;;;0.83;;
17592;SDS011;8915;51.760;14.300;2022-07-25T03:12:00;1.40;;;1.00;;
17592;SDS011;8915;51.760;14.300;2022-07-25T03:14:27;1.03;;;0.93;;
17592;SDS011;8915;51.760;14.300;2022-07-25T03:16:53;0.83;;;0.83;;
17592;SDS011;8915;51.760;14.300;2022-07-25T03:19:19;1.20;;;0.80;;
17592;SDS011;8915;51.760;14.300;2022-07-25T03:21:48;1.10;;;1.00;;
17592;SDS011;8915;51.760;14.300;2022-07-25T03:24:14;1.47;;;1.17;;
17592;SDS011;8915;51.760;14.300;2022-07-25T03:26:40;2.50;;;0.90;;
17592;SDS011;8915;51.760;14.300;2022-07-25T03:29:07;1.40;;;1.10;;
17592;SDS011;8915;51.760;14.300;2022-07-25T03:31:33;1.63;;;1.10;;
17592;SDS011;8915;51.760;14.300;2022-07-25T03:34:00;1.10;;;0.90;;
17592;SDS011;8915;51.760;14.300;2022-07-25T03:36:26;1.10;;;1.00;;
17592;SDS011;8915;51.760;14.300;2022-07-25T03:38:54;1.10;;;1.00;;
17592;SDS011;8915;51.760;14.300;2022-07-25T03:41:21;1.10;;;1.00;;
17592;SDS011;8915;51.760;14.300;2022-07-25T03:43:48;1.30;;;1.17;;
17592;SDS011;8915;51.760;14.300;2022-07-25T03:46:14;1.17;;;0.97;;
17592;SDS011;8915;51.760;14.300;2022-07-25T03:48:40;1.33;;;1.13;;
17592;SDS011;8915;51.760;14.300;2022-07-25T03:51:07;1.23;;;1.03;;
17592;SDS011;8915;51.760;14.300;2022-07-25T03:53:33;1.10;;;1.00;;
17592;SDS011;8915;51.760;14.300;2022-07-25T03:56:22;1.20;;;1.10;;
17592;SDS011;8915;51.760;14.300;2022-07-25T03:58:48;1.90;;;1.13;;
17592;SDS011;8915;51.760;14.300;2022-07-25T04:01:15;1.40;;;1.30;;
17592;SDS011;8915;51.760;14.300;2022-07-25T04:03:41;2.07;;;1.27;;
17592;SDS011;8915;51.760;14.300;2022-07-25T04:06:08;1.43;;;0.97;;
17592;SDS011;8915;51.760;14.300;2022-07-25T04:08:34;1.47;;;1.27;;
17592;SDS011;8915;51.760;14.300;2022-07-25T04:11:00;2.97;;;1.27;;
17592;SDS011;8915;51.760;14.300;2022-07-25T04:13:28;1.33;;;1.03;;
17592;SDS011;8915;51.760;14.300;2022-07-25T04:15:54;1.23;;;1.13;;
17592;SDS011;8915;51.760;14.300;2022-07-25T04:18:21;2.83;;;1.20;;
17592;SDS011;8915;51.760;14.300;2022-07-25T04:20:47;1.77;;;1.40;;
17592;SDS011;8915;51.760;14.300;2022-07-25T04:23:14;1.43;;;1.23;;
17592;SDS011;8915;51.760;14.300;2022-07-25T04:25:40;1.20;;;1.10;;
17592;SDS011;8915;51.760;14.300;2022-07-25T04:28:06;1.13;;;1.10;;
17592;SDS011;8915;51.760;14.300;2022-07-25T04:30:34;1.30;;;1.00;;
17592;SDS011;8915;51.760;14.300;2022-07-25T04:33:01;0.80;;;0.80;;
17592;SDS011;8915;51.760;14.300;2022-07-25T04:35:28;1.40;;;1.30;;
17592;SDS011;8915;51.760;14.300;2022-07-25T04:37:54;1.30;;;1.20;;
17592;SDS011;8915;51.760;14.300;2022-07-25T04:40:20;1.20;;;1.10;;
17592;SDS011;8915;51.760;14.300;2022-07-25T04:42:47;1.20;;;1.10;;
17592;SDS011;8915;51.760;14.300;2022-07-25T04:45:13;1.33;;;1.10;;
17592;SDS011;8915;51.760;14.300;2022-07-25T04:47:41;4.20;;;1.30;;
17592;SDS011;8915;51.760;14.300;2022-07-25T04:50:08;1.10;;;1.00;;
17592;SDS011;8915;51.760;14.300;2022-07-25T04:52:35;1.70;;;1.20;;
17592;SDS011;8915;51.760;14.300;2022-07-25T04:55:01;1.37;;;1.20;;
17592;SDS011;8915;51.760;14.300;2022-07-25T04:57:28;1.20;;;1.10;;
17592;SDS011;8915;51.760;14.300;2022-07-25T04:59:55;1.20;;;1.10;;
17592;SDS011;8915;51.760;14.300;2022-07-25T05:02:22;1.00;;;1.00;;
17592;SDS011;8915;51.760;14.300;2022-07-25T05:04:50;3.40;;;1.10;;
17592;SDS011;8915;51.760;14.300;2022-07-25T05:07:17;1.57;;;1.00;;
17592;SDS011;8915;51.760;14.300;2022-07-25T05:09:44;2.10;;;1.20;;
17592;SDS011;8915;51.760;14.300;2022-07-25T05:12:10;1.80;;;1.13;;
17592;SDS011;8915;51.760;14.300;2022-07-25T05:14:37;1.37;;;1.07;;
17592;SDS011;8915;51.760;14.300;2022-07-25T05:17:03;1.23;;;1.13;;
17592;SDS011;8915;51.760;14.300;2022-07-25T05:19:30;1.70;;;1.60;;
17592;SDS011;8915;51.760;14.300;2022-07-25T05:21:58;1.53;;;1.30;;
17592;SDS011;8915;51.760;14.300;2022-07-25T05:24:26;1.37;;;1.20;;
17592;SDS011;8915;51.760;14.300;2022-07-25T05:26:53;1.40;;;1.20;;
17592;SDS011;8915;51.760;14.300;2022-07-25T05:29:19;1.30;;;1.20;;
17592;SDS011;8915;51.760;14.300;2022-07-25T05:31:45;1.30;;;1.20;;
17592;SDS011;8915;51.760;14.300;2022-07-25T05:34:12;1.17;;;1.00;;
17592;SDS011;8915;51.760;14.300;2022-07-25T05:36:38;1.53;;;1.27;;
17592;SDS011;8915;51.760;14.300;2022-07-25T05:39:06;2.13;;;1.20;;
17592;SDS011;8915;51.760;14.300;2022-07-25T05:41:32;1.23;;;1.13;;
17592;SDS011;8915;51.760;14.300;2022-07-25T05:43:59;1.87;;;1.30;;
17592;SDS011;8915;51.760;14.300;2022-07-25T05:46:25;1.80;;;1.23;;
17592;SDS011;8915;51.760;14.300;2022-07-25T05:48:52;1.27;;;1.17;;
17592;SDS011;8915;51.760;14.300;2022-07-25T05:51:18;4.40;;;1.20;;
17592;SDS011;8915;51.760;14.300;2022-07-25T05:53:44;1.50;;;1.20;;
17592;SDS011;8915;51.760;14.300;2022-07-25T05:56:12;1.10;;;1.00;;
17592;SDS011;8915;51.760;14.300;2022-07-25T05:58:39;2.80;;;1.30;;
17592;SDS011;8915;51.760;14.300;2022-07-25T06:01:06;1.33;;;1.23;;
17592;SDS011;8915;51.760;14.300;2022-07-25T06:03:32;1.30;;;1.20;;
17592;SDS011;8915;51.760;14.300;2022-07-25T06:05:59;1.13;;;1.03;;
17592;SDS011;8915;51.760;14.300;2022-07-25T06:08:26;1.97;;;1.20;;
17592;SDS011;8915;51.760;14.300;2022-07-25T06:10:52;1.77;;;1.30;;
17592;SDS011;8915;51.760;14.300;2022-07-25T06:13:20;1.20;;;1.10;;
17592;SDS011;8915;51.760;14.300;2022-07-25T06:15:47;3.13;;;1.43;;
17592;SDS011;8915;51.760;14.300;2022-07-25T06:18:13;1.80;;;1.10;;
17592;SDS011;8915;51.760;14.300;2022-07-25T06:20:40;1.27;;;1.17;;
17592;SDS011;8915;51.760;14.300;2022-07-25T06:23:06;1.70;;;1.40;;
17592;SDS011;8915;51.760;14.300;2022-07-25T06:25:33;1.57;;;1.17;;
17592;SDS011;8915;51.760;14.300;2022-07-25T06:28:00;1.23;;;1.10;;
17592;SDS011;8915;51.760;14.300;2022-07-25T06:30:27;1.40;;;1.20;;
17592;SDS011;8915;51.760;14.300;2022-07-25T06:32:54;1.17;;;1.07;;
17592;SDS011;8915;51.760;14.300;2022-07-25T06:35:20;1.60;;;1.27;;
17592;SDS011;8915;51.760;14.300;2022-07-25T06:37:47;1.43;;;1.27;;
17592;SDS011;8915;51.760;14.300;2022-07-25T06:40:13;2.40;;;1.80;;
17592;SDS011;8915;51.760;14.300;2022-07-25T06:42:40;2.40;;;1.30;;
17592;SDS011;8915;51.760;14.300;2022-07-25T06:45:08;1.70;;;1.40;;
17592;SDS011;8915;51.760;14.300;2022-07-25T06:47:37;1.50;;;1.40;;
17592;SDS011;8915;51.760;14.300;2022-07-25T06:50:06;1.50;;;1.30;;
17592;SDS011;8915;51.760;14.300;2022-07-25T06:52:34;1.63;;;1.52;;
17592;SDS011;8915;51.760;14.300;2022-07-25T06:55:00;1.98;;;1.77;;
17592;SDS011;8915;51.760;14.300;2022-07-25T06:57:27;2.00;;;1.45;;
17592;SDS011;8915;51.760;14.300;2022-07-25T06:59:53;1.95;;;1.45;;
17592;SDS011;8915;51.760;14.300;2022-07-25T07:02:20;1.60;;;1.42;;
17592;SDS011;8915;51.760;14.300;2022-07-25T07:04:47;2.28;;;1.88;;
17592;SDS011;8915;51.760;14.300;2022-07-25T07:07:15;1.67;;;1.58;;
17592;SDS011;8915;51.760;14.300;2022-07-25T07:09:41;3.47;;;1.63;;
17592;SDS011;8915;51.760;14.300;2022-07-25T07:12:09;2.33;;;1.60;;
17592;SDS011;8915;51.760;14.300;2022-07-25T07:14:35;2.38;;;1.90;;
17592;SDS011;8915;51.760;14.300;2022-07-25T07:17:02;1.73;;;1.60;;
17592;SDS011;8915;51.760;14.300;2022-07-25T07:19:29;1.92;;;1.75;;
17592;SDS011;8915;51.760;14.300;2022-07-25T07:21:57;3.95;;;1.80;;
17592;SDS011;8915;51.760;14.300;2022-07-25T07:24:23;2.08;;;1.88;;
17592;SDS011;8915;51.760;14.300;2022-07-25T07:26:49;2.10;;;1.90;;
17592;SDS011;8915;51.760;14.300;2022-07-25T07:29:16;1.95;;;1.77;;
17592;SDS011;8915;51.760;14.300;2022-07-25T07:31:43;1.92;;;1.73;;
17592;SDS011;8915;51.760;14.300;2022-07-25T07:34:09;2.40;;;2.08;;
17592;SDS011;8915;51.760;14.300;2022-07-25T07:36:35;4.88;;;1.92;;
17592;SDS011;8915;51.760;14.300;2022-07-25T07:39:03;2.40;;;2.20;;
17592;SDS011;8915;51.760;14.300;2022-07-25T07:41:30;2.53;;;2.05;;
17592;SDS011;8915;51.760;14.300;2022-07-25T07:43:56;2.13;;;1.90;;
17592;SDS011;8915;51.760;14.300;2022-07-25T07:46:23;2.65;;;2.20;;
17592;SDS011;8915;51.760;14.300;2022-07-25T07:48:49;2.60;;;2.10;;
17592;SDS011;8915;51.760;14.300;2022-07-25T07:51:16;3.17;;;2.10;;
17592;SDS011;8915;51.760;14.300;2022-07-25T07:53:42;2.90;;;2.08;;
17592;SDS011;8915;51.760;14.300;2022-07-25T07:56:27;2.40;;;1.80;;
17592;SDS011;8915;51.760;14.300;2022-07-25T07:58:54;3.67;;;1.95;;
17592;SDS011;8915;51.760;14.300;2022-07-25T08:01:20;2.40;;;2.20;;
17592;SDS011;8915;51.760;14.300;2022-07-25T08:03:48;2.42;;;2.20;;
17592;SDS011;8915;51.760;14.300;2022-07-25T08:06:15;3.55;;;2.17;;
17592;SDS011;8915;51.760;14.300;2022-07-25T08:08:42;2.67;;;2.20;;
17592;SDS011;8915;51.760;14.300;2022-07-25T08:11:09;2.47;;;2.25;;
17592;SDS011;8915;51.760;14.300;2022-07-25T08:13:36;3.15;;;2.45;;
17592;SDS011;8915;51.760;14.300;2022-07-25T08:16:03;2.35;;;2.15;;
17592;SDS011;8915;51.760;14.300;2022-07-25T08:18:31;2.20;;;1.98;;
17592;SDS011;8915;51.760;14.300;2022-07-25T08:20:58;2.67;;;2.30;;
17592;SDS011;8915;51.760;14.300;2022-07-25T08:23:27;2.40;;;2.20;;
17592;SDS011;8915;51.760;14.300;2022-07-25T08:25:55;2.58;;;2.13;;
17592;SDS011;8915;51.760;14.300;2022-07-25T08:28:21;2.33;;;2.13;;
17592;SDS011;8915;51.760;14.300;2022-07-25T08:30:49;2.03;;;1.90;;
17592;SDS011;8915;51.760;14.300;2022-07-25T08:33:16;2.38;;;2.17;;
17592;SDS011;8915;51.760;14.300;2022-07-25T08:35:46;3.55;;;2.13;;
17592;SDS011;8915;51.760;14.300;2022-07-25T08:38:13;2.38;;;2.17;;
17592;SDS011;8915;51.760;14.300;2022-07-25T08:40:40;2.83;;;2.22;;
17592;SDS011;8915;51.760;14.300;2022-07-25T08:43:09;2.63;;;2.38;;
17592;SDS011;8915;51.760;14.300;2022-07-25T08:45:37;2.38;;;2.17;;
17592;SDS011;8915;51.760;14.300;2022-07-25T08:48:11;2.58;;;2.38;;
17592;SDS011;8915;51.760;14.300;2022-07-25T08:50:38;2.75;;;2.45;;
17592;SDS011;8915;51.760;14.300;2022-07-25T08:53:04;3.30;;;2.33;;
17592;SDS011;8915;51.760;14.300;2022-07-25T08:55:31;3.00;;;2.50;;
17592;SDS011;8915;51.760;14.300;2022-07-25T08:57:57;2.90;;;2.60;;
17592;SDS011;8915;51.760;14.300;2022-07-25T09:00:25;2.85;;;2.55;;
17592;SDS011;8915;51.760;14.300;2022-07-25T09:02:53;2.83;;;2.50;;
17592;SDS011;8915;51.760;14.300;2022-07-25T09:05:23;3.22;;;2.67;;
17592;SDS011;8915;51.760;14.300;2022-07-25T09:07:52;2.92;;;2.33;;
17592;SDS011;8915;51.760;14.300;2022-07-25T09:10:21;2.72;;;2.33;;
17592;SDS011;8915;51.760;14.300;2022-07-25T09:12:52;2.92;;;2.58;;
17592;SDS011;8915;51.760;14.300;2022-07-25T09:15:23;2.83;;;2.60;;
17592;SDS011;8915;51.760;14.300;2022-07-25T09:17:51;2.85;;;2.30;;
17592;SDS011;8915;51.760;14.300;2022-07-25T09:20:19;3.58;;;2.83;;
17592;SDS011;8915;51.760;14.300;2022-07-25T09:22:47;2.70;;;2.40;;
17592;SDS011;8915;51.760;14.300;2022-07-25T09:25:21;3.00;;;2.55;;
17592;SDS011;8915;51.760;14.300;2022-07-25T09:27:49;6.07;;;3.38;;
17592;SDS011;8915;51.760;14.300;2022-07-25T09:30:16;4.20;;;2.72;;
17592;SDS011;8915;51.760;14.300;2022-07-25T09:32:42;2.95;;;2.65;;
17592;SDS011;8915;51.760;14.300;2022-07-25T09:35:09;2.97;;;2.78;;
17592;SDS011;8915;51.760;14.300;2022-07-25T09:37:36;2.80;;;2.60;;
17592;SDS011;8915;51.760;14.300;2022-07-25T09:40:11;5.35;;;2.90;;
17592;SDS011;8915;51.760;14.300;2022-07-25T09:42:39;2.80;;;2.60;;
17592;SDS011;8915;51.760;14.300;2022-07-25T09:45:07;3.85;;;2.97;;
17592;SDS011;8915;51.760;14.300;2022-07-25T09:47:36;3.28;;;2.70;;
17592;SDS011;8915;51.760;14.300;2022-07-25T09:50:14;3.17;;;2.60;;
17592;SDS011;8915;51.760;14.300;2022-07-25T09:52:41;3.63;;;2.75;;
17592;SDS011;8915;51.760;14.300;2022-07-25T09:55:08;5.85;;;2.88;;
17592;SDS011;8915;51.760;14.300;2022-07-25T09:57:38;3.13;;;2.78;;
17592;SDS011;8915;51.760;14.300;2022-07-25T10:00:06;3.22;;;2.92;;
17592;SDS011;8915;51.760;14.300;2022-07-25T10:02:40;3.38;;;3.08;;
17592;SDS011;8915;51.760;14.300;2022-07-25T10:05:13;3.67;;;3.28;;
17592;SDS011;8915;51.760;14.300;2022-07-25T10:07:41;4.00;;;2.85;;
17592;SDS011;8915;51.760;14.300;2022-07-25T10:10:20;4.65;;;3.35;;
17592;SDS011;8915;51.760;14.300;2022-07-25T10:12:59;3.20;;;2.85;;
17592;SDS011;8915;51.760;14.300;2022-07-25T10:15:37;4.93;;;3.08;;
17592;SDS011;8915;51.760;14.300;2022-07-25T10:18:08;5.10;;;3.20;;
17592;SDS011;8915;51.760;14.300;2022-07-25T10:20:35;3.42;;;3.13;;
17592;SDS011;8915;51.760;14.300;2022-07-25T10:23:02;3.75;;;2.88;;
17592;SDS011;8915;51.760;14.300;2022-07-25T10:25:30;3.53;;;3.17;;
17592;SDS011;8915;51.760;14.300;2022-07-25T10:27:58;4.53;;;3.65;;
17592;SDS011;8915;51.760;14.300;2022-07-25T10:30:32;4.18;;;3.72;;
17592;SDS011;8915;51.760;14.300;2022-07-25T10:33:01;5.15;;;3.50;;
17592;SDS011;8915;51.760;14.300;2022-07-25T10:35:29;4.13;;;3.35;;
17592;SDS011;8915;51.760;14.300;2022-07-25T10:37:56;3.88;;;3.35;;
17592;SDS011;8915;51.760;14.300;2022-07-25T10:40:27;4.00;;;3.60;;
17592;SDS011;8915;51.760;14.300;2022-07-25T10:43:05;4.10;;;3.70;;
17592;SDS011;8915;51.760;14.300;2022-07-25T10:45:36;4.97;;;3.63;;
17592;SDS011;8915;51.760;14.300;2022-07-25T10:48:08;4.07;;;3.67;;
17592;SDS011;8915;51.760;14.300;2022-07-25T10:50:47;5.10;;;3.67;;
17592;SDS011;8915;51.760;14.300;2022-07-25T10:53:25;6.18;;;3.88;;
17592;SDS011;8915;51.760;14.300;2022-07-25T10:55:55;5.22;;;4.32;;
17592;SDS011;8915;51.760;14.300;2022-07-25T10:58:23;4.25;;;3.88;;
17592;SDS011;8915;51.760;14.300;2022-07-25T11:00:50;7.55;;;4.03;;
17592;SDS011;8915;51.760;14.300;2022-07-25T11:03:17;4.25;;;3.67;;
17592;SDS011;8915;51.760;14.300;2022-07-25T11:05:43;4.75;;;3.92;;
17592;SDS011;8915;51.760;14.300;2022-07-25T11:08:10;3.95;;;3.63;;
17592;SDS011;8915;51.760;14.300;2022-07-25T11:10:37;4.55;;;3.80;;
17592;SDS011;8915;51.760;14.300;2022-07-25T11:13:04;4.93;;;4.22;;
17592;SDS011;8915;51.760;14.300;2022-07-25T11:15:35;4.60;;;3.70;;
17592;SDS011;8915;51.760;14.300;2022-07-25T11:18:02;4.45;;;3.83;;
17592;SDS011;8915;51.760;14.300;2022-07-25T11:20:28;5.50;;;3.65;;
17592;SDS011;8915;51.760;14.300;2022-07-25T11:22:55;3.80;;;3.42;;
17592;SDS011;8915;51.760;14.300;2022-07-25T11:25:22;3.85;;;3.53;;
17592;SDS011;8915;51.760;14.300;2022-07-25T11:27:49;3.67;;;3.13;;
17592;SDS011;8915;51.760;14.300;2022-07-25T11:30:21;3.72;;;3.42;;
17592;SDS011;8915;51.760;14.300;2022-07-25T11:32:49;3.25;;;2.75;;
17592;SDS011;8915;51.760;14.300;2022-07-25T11:35:19;3.38;;;3.08;;
17592;SDS011;8915;51.760;14.300;2022-07-25T11:37:47;4.22;;;3.22;;
17592;SDS011;8915;51.760;14.300;2022-07-25T11:40:15;3.25;;;2.95;;
17592;SDS011;8915;51.760;14.300;2022-07-25T11:42:43;5.00;;;3.00;;
17592;SDS011;8915;51.760;14.300;2022-07-25T11:45:14;4.13;;;3.08;;
17592;SDS011;8915;51.760;14.300;2022-07-25T11:47:43;3.85;;;3.05;;
17592;SDS011;8915;51.760;14.300;2022-07-25T11:50:11;3.75;;;2.90;;
17592;SDS011;8915;51.760;14.300;2022-07-25T11:52:40;5.50;;;3.00;;
17592;SDS011;8915;51.760;14.300;2022-07-25T11:55:09;3.00;;;2.70;;
17592;SDS011;8915;51.760;14.300;2022-07-25T11:57:38;3.42;;;3.13;;
17592;SDS011;8915;51.760;14.300;2022-07-25T12:00:08;3.13;;;2.85;;
17592;SDS011;8915;51.760;14.300;2022-07-25T12:02:40;2.90;;;2.70;;
17592;SDS011;8915;51.760;14.300;2022-07-25T12:05:06;3.38;;;2.60;;
17592;SDS011;8915;51.760;14.300;2022-07-25T12:07:39;4.75;;;3.17;;
17592;SDS011;8915;51.760;14.300;2022-07-25T12:10:10;2.72;;;2.53;;
17592;SDS011;8915;51.760;14.300;2022-07-25T12:12:42;3.45;;;3.15;;
17592;SDS011;8915;51.760;14.300;2022-07-25T12:15:10;3.22;;;2.80;;
17592;SDS011;8915;51.760;14.300;2022-07-25T12:17:37;3.42;;;3.00;;
17592;SDS011;8915;51.760;14.300;2022-07-25T12:20:04;3.28;;;2.97;;
17592;SDS011;8915;51.760;14.300;2022-07-25T12:22:40;3.05;;;2.53;;
17592;SDS011;8915;51.760;14.300;2022-07-25T12:25:07;2.88;;;2.42;;
17592;SDS011;8915;51.760;14.300;2022-07-25T12:27:34;5.15;;;2.78;;
17592;SDS011;8915;51.760;14.300;2022-07-25T12:30:00;5.25;;;3.00;;
17592;SDS011;8915;51.760;14.300;2022-07-25T12:32:27;4.75;;;2.80;;
17592;SDS011;8915;51.760;14.300;2022-07-25T12:34:54;3.10;;;2.75;;
17592;SDS011;8915;51.760;14.300;2022-07-25T12:37:21;3.67;;;2.90;;
17592;SDS011;8915;51.760;14.300;2022-07-25T12:39:48;3.40;;;3.10;;
17592;SDS011;8915;51.760;14.300;2022-07-25T12:42:15;3.22;;;2.65;;
17592;SDS011;8915;51.760;14.300;2022-07-25T12:44:41;2.78;;;2.35;;
17592;SDS011;8915;51.760;14.300;2022-07-25T12:47:08;7.32;;;2.88;;
17592;SDS011;8915;51.760;14.300;2022-07-25T12:49:34;3.17;;;2.80;;
17592;SDS011;8915;51.760;14.300;2022-07-25T12:52:01;3.80;;;2.80;;
17592;SDS011;8915;51.760;14.300;2022-07-25T12:54:29;3.08;;;2.78;;
17592;SDS011;8915;51.760;14.300;2022-07-25T12:56:57;3.35;;;2.70;;
17592;SDS011;8915;51.760;14.300;2022-07-25T12:59:23;2.88;;;2.67;;
17592;SDS011;8915;51.760;14.300;2022-07-25T13:01:50;3.20;;;2.83;;
17592;SDS011;8915;51.760;14.300;2022-07-25T13:04:16;3.30;;;3.00;;
17592;SDS011;8915;51.760;14.300;2022-07-25T13:06:42;3.22;;;2.92;;
17592;SDS011;8915;51.760;14.300;2022-07-25T13:09:09;3.25;;;2.95;;
17592;SDS011;8915;51.760;14.300;2022-07-25T13:11:35;3.72;;;2.90;;
17592;SDS011;8915;51.760;14.300;2022-07-25T13:14:03;3.33;;;3.03;;
17592;SDS011;8915;51.760;14.300;2022-07-25T13:16:30;3.20;;;2.90;;
17592;SDS011;8915;51.760;14.300;2022-07-25T13:18:58;3.78;;;3.10;;
17592;SDS011;8915;51.760;14.300;2022-07-25T13:21:24;4.45;;;3.22;;
17592;SDS011;8915;51.760;14.300;2022-07-25T13:23:51;3.17;;;2.85;;
17592;SDS011;8915;51.760;14.300;2022-07-25T13:26:17;3.03;;;2.70;;
17592;SDS011;8915;51.760;14.300;2022-07-25T13:28:43;4.47;;;2.95;;
17592;SDS011;8915;51.760;14.300;2022-07-25T13:31:11;4.30;;;3.25;;
17592;SDS011;8915;51.760;14.300;2022-07-25T13:33:38;5.07;;;3.10;;
17592;SDS011;8915;51.760;14.300;2022-07-25T13:36:04;3.53;;;3.22;;
17592;SDS011;8915;51.760;14.300;2022-07-25T13:38:31;5.20;;;2.95;;
17592;SDS011;8915;51.760;14.300;2022-07-25T13:40:58;4.63;;;3.20;;
17592;SDS011;8915;51.760;14.300;2022-07-25T13:43:26;3.40;;;3.05;;
17592;SDS011;8915;51.760;14.300;2022-07-25T13:45:53;3.42;;;2.90;;
17592;SDS011;8915;51.760;14.300;2022-07-25T13:48:20;5.25;;;3.10;;
17592;SDS011;8915;51.760;14.300;2022-07-25T13:50:47;4.43;;;2.80;;
17592;SDS011;8915;51.760;14.300;2022-07-25T13:53:13;3.72;;;3.08;;
17592;SDS011;8915;51.760;14.300;2022-07-25T13:55:40;3.88;;;3.05;;
17592;SDS011;8915;51.760;14.300;2022-07-25T13:58:06;3.08;;;2.85;;
17592;SDS011;8915;51.760;14.300;2022-07-25T14:00:33;2.92;;;2.63;;
17592;SDS011;8915;51.760;14.300;2022-07-25T14:03:00;3.60;;;3.03;;
17592;SDS011;8915;51.760;14.300;2022-07-25T14:05:27;3.72;;;3.00;;
17592;SDS011;8915;51.760;14.300;2022-07-25T14:07:54;3.72;;;3.10;;
17592;SDS011;8915;51.760;14.300;2022-07-25T14:10:20;3.20;;;2.90;;
17592;SDS011;8915;51.760;14.300;2022-07-25T14:12:47;4.30;;;2.88;;
17592;SDS011;8915;51.760;14.300;2022-07-25T14:15:13;3.30;;;3.00;;
17592;SDS011;8915;51.760;14.300;2022-07-25T14:17:40;3.75;;;2.78;;
17592;SDS011;8915;51.760;14.300;2022-07-25T14:20:07;3.92;;;2.97;;
17592;SDS011;8915;51.760;14.300;2022-07-25T14:22:36;3.50;;;3.13;;
17592;SDS011;8915;51.760;14.300;2022-07-25T14:25:03;3.65;;;2.90;;
17592;SDS011;8915;51.760;14.300;2022-07-25T14:27:31;3.65;;;2.80;;
17592;SDS011;8915;51.760;14.300;2022-07-25T14:29:58;3.13;;;2.83;;
17592;SDS011;8915;51.760;14.300;2022-07-25T14:32:25;3.20;;;2.90;;
17592;SDS011;8915;51.760;14.300;2022-07-25T14:34:51;3.63;;;3.00;;
17592;SDS011;8915;51.760;14.300;2022-07-25T14:37:18;3.08;;;2.78;;
17592;SDS011;8915;51.760;14.300;2022-07-25T14:39:47;3.75;;;3.20;;
17592;SDS011;8915;51.760;14.300;2022-07-25T14:42:14;3.35;;;2.80;;
17592;SDS011;8915;51.760;14.300;2022-07-25T14:44:40;3.40;;;3.10;;
17592;SDS011;8915;51.760;14.300;2022-07-25T14:47:07;3.50;;;2.92;;
17592;SDS011;8915;51.760;14.300;2022-07-25T14:49:33;3.10;;;2.58;;